sensor_id;sensor_type;location;lat;lon;timestamp;P1;durP1;ratioP1;P2;durP2;ratioP2
57087;SDS011;42965;52.846;6.614;2022-10-23T00:00:40;17.40;;;15.43;;
57087;SDS011;42965;52.846;6.614;2022-10-23T00:03:06;18.52;;;14.77;;
57087;SDS011;42965;52.846;6.614;2022-10-23T00:05:32;16.00;;;14.00;;
57087;SDS011;42965;52.846;6.614;2022-10-23T00:07:58;19.73;;;16.10;;
57087;SDS011;42965;52.846;6.614;2022-10-23T00:10:26;17.70;;;15.23;;
57087;SDS011;42965;52.846;6.614;2022-10-23T00:12:53;21.38;;;16.80;;
57087;SDS011;42965;52.846;6.614;2022-10-23T00:15:20;22.83;;;17.52;;
57087;SDS011;42965;52.846;6.614;2022-10-23T00:17:48;25.60;;;17.48;;
57087;SDS011;42965;52.846;6.614;2022-10-23T00:20:14;18.63;;;16.35;;
57087;SDS011;42965;52.846;6.614;2022-10-23T00:22:41;22.58;;;18.52;;
57087;SDS011;42965;52.846;6.614;2022-10-23T00:25:07;18.10;;;16.10;;
57087;SDS011;42965;52.846;6.614;2022-10-23T00:27:35;21.92;;;17.92;;
57087;SDS011;42965;52.846;6.614;2022-10-23T00:30:02;20.13;;;16.10;;
57087;SDS011;42965;52.846;6.614;2022-10-23T00:32:30;24.02;;;17.33;;
57087;SDS011;42965;52.846;6.614;2022-10-23T00:34:56;22.67;;;17.88;;
57087;SDS011;42965;52.846;6.614;2022-10-23T00:37:22;24.92;;;18.20;;
57087;SDS011;42965;52.846;6.614;2022-10-23T00:39:49;19.33;;;16.48;;
57087;SDS011;42965;52.846;6.614;2022-10-23T00:42:15;19.58;;;16.20;;
57087;SDS011;42965;52.846;6.614;2022-10-23T00:47:09;17.25;;;15.00;;
57087;SDS011;42965;52.846;6.614;2022-10-23T00:49:36;16.38;;;14.55;;
57087;SDS011;42965;52.846;6.614;2022-10-23T00:52:04;26.50;;;17.63;;
57087;SDS011;42965;52.846;6.614;2022-10-23T00:54:35;24.42;;;17.48;;
57087;SDS011;42965;52.846;6.614;2022-10-23T00:57:05;18.42;;;14.77;;
57087;SDS011;42965;52.846;6.614;2022-10-23T00:59:38;22.77;;;17.35;;
57087;SDS011;42965;52.846;6.614;2022-10-23T01:02:05;22.10;;;16.33;;
57087;SDS011;42965;52.846;6.614;2022-10-23T01:04:31;25.10;;;17.35;;
57087;SDS011;42965;52.846;6.614;2022-10-23T01:07:16;25.05;;;17.67;;
57087;SDS011;42965;52.846;6.614;2022-10-23T01:10:10;22.30;;;17.60;;
57087;SDS011;42965;52.846;6.614;2022-10-23T01:12:55;25.25;;;17.63;;
57087;SDS011;42965;52.846;6.614;2022-10-23T01:15:45;27.20;;;18.67;;
57087;SDS011;42965;52.846;6.614;2022-10-23T01:21:05;24.70;;;18.58;;
57087;SDS011;42965;52.846;6.614;2022-10-23T01:28:58;25.63;;;17.73;;
57087;SDS011;42965;52.846;6.614;2022-10-23T01:31:45;25.58;;;16.80;;
57087;SDS011;42965;52.846;6.614;2022-10-23T01:34:26;18.13;;;15.82;;
57087;SDS011;42965;52.846;6.614;2022-10-23T01:36:56;17.23;;;14.50;;
57087;SDS011;42965;52.846;6.614;2022-10-23T01:39:28;20.10;;;15.55;;
57087;SDS011;42965;52.846;6.614;2022-10-23T01:42:10;17.25;;;15.38;;
57087;SDS011;42965;52.846;6.614;2022-10-23T01:44:41;17.60;;;14.65;;
57087;SDS011;42965;52.846;6.614;2022-10-23T01:47:12;14.60;;;13.02;;
57087;SDS011;42965;52.846;6.614;2022-10-23T01:49:52;16.23;;;13.23;;
57087;SDS011;42965;52.846;6.614;2022-10-23T01:52:21;18.00;;;14.93;;
57087;SDS011;42965;52.846;6.614;2022-10-23T01:54:49;16.73;;;14.73;;
57087;SDS011;42965;52.846;6.614;2022-10-23T01:57:17;19.27;;;15.38;;
57087;SDS011;42965;52.846;6.614;2022-10-23T01:59:49;20.63;;;15.35;;
57087;SDS011;42965;52.846;6.614;2022-10-23T02:02:18;18.97;;;14.43;;
57087;SDS011;42965;52.846;6.614;2022-10-23T02:04:48;24.60;;;17.77;;
57087;SDS011;42965;52.846;6.614;2022-10-23T02:07:21;16.38;;;14.43;;
57087;SDS011;42965;52.846;6.614;2022-10-23T02:09:48;16.67;;;14.50;;
57087;SDS011;42965;52.846;6.614;2022-10-23T02:12:17;17.48;;;15.02;;
57087;SDS011;42965;52.846;6.614;2022-10-23T02:17:42;21.10;;;16.95;;
57087;SDS011;42965;52.846;6.614;2022-10-23T02:20:44;26.08;;;18.73;;
57087;SDS011;42965;52.846;6.614;2022-10-23T02:23:19;24.73;;;17.05;;
57087;SDS011;42965;52.846;6.614;2022-10-23T02:28:27;20.42;;;15.95;;
57087;SDS011;42965;52.846;6.614;2022-10-23T02:31:00;18.27;;;14.35;;
57087;SDS011;42965;52.846;6.614;2022-10-23T02:33:30;17.17;;;15.35;;
57087;SDS011;42965;52.846;6.614;2022-10-23T02:35:58;19.25;;;15.00;;
57087;SDS011;42965;52.846;6.614;2022-10-23T02:38:37;26.88;;;19.92;;
57087;SDS011;42965;52.846;6.614;2022-10-23T02:41:25;32.97;;;22.40;;
57087;SDS011;42965;52.846;6.614;2022-10-23T02:46:34;21.27;;;16.92;;
57087;SDS011;42965;52.846;6.614;2022-10-23T02:54:37;21.27;;;16.10;;
57087;SDS011;42965;52.846;6.614;2022-10-23T02:57:32;20.33;;;16.52;;
57087;SDS011;42965;52.846;6.614;2022-10-23T03:02:39;21.73;;;16.73;;
57087;SDS011;42965;52.846;6.614;2022-10-23T03:05:12;19.73;;;16.92;;
57087;SDS011;42965;52.846;6.614;2022-10-23T03:07:50;23.85;;;18.10;;
57087;SDS011;42965;52.846;6.614;2022-10-23T03:10:17;21.05;;;17.77;;
57087;SDS011;42965;52.846;6.614;2022-10-23T03:12:43;23.90;;;17.27;;
57087;SDS011;42965;52.846;6.614;2022-10-23T03:15:13;24.80;;;19.63;;
57087;SDS011;42965;52.846;6.614;2022-10-23T03:17:41;26.13;;;19.33;;
57087;SDS011;42965;52.846;6.614;2022-10-23T03:20:08;26.33;;;19.35;;
57087;SDS011;42965;52.846;6.614;2022-10-23T03:22:34;24.38;;;18.50;;
57087;SDS011;42965;52.846;6.614;2022-10-23T03:25:01;28.88;;;20.85;;
57087;SDS011;42965;52.846;6.614;2022-10-23T03:27:29;32.47;;;21.33;;
57087;SDS011;42965;52.846;6.614;2022-10-23T03:29:57;32.72;;;23.50;;
57087;SDS011;42965;52.846;6.614;2022-10-23T03:32:23;36.53;;;25.77;;
57087;SDS011;42965;52.846;6.614;2022-10-23T03:34:50;39.42;;;26.13;;
57087;SDS011;42965;52.846;6.614;2022-10-23T03:37:16;39.92;;;26.13;;
57087;SDS011;42965;52.846;6.614;2022-10-23T03:39:42;45.70;;;27.33;;
57087;SDS011;42965;52.846;6.614;2022-10-23T03:42:09;36.05;;;27.10;;
57087;SDS011;42965;52.846;6.614;2022-10-23T03:44:35;38.42;;;26.80;;
57087;SDS011;42965;52.846;6.614;2022-10-23T03:47:02;45.15;;;27.75;;
57087;SDS011;42965;52.846;6.614;2022-10-23T03:49:29;43.70;;;27.42;;
57087;SDS011;42965;52.846;6.614;2022-10-23T03:52:01;42.50;;;28.48;;
57087;SDS011;42965;52.846;6.614;2022-10-23T03:54:28;41.33;;;26.88;;
57087;SDS011;42965;52.846;6.614;2022-10-23T03:56:55;38.08;;;25.42;;
57087;SDS011;42965;52.846;6.614;2022-10-23T03:59:22;37.55;;;26.00;;
57087;SDS011;42965;52.846;6.614;2022-10-23T04:01:49;41.47;;;26.65;;
57087;SDS011;42965;52.846;6.614;2022-10-23T04:04:15;42.63;;;26.60;;
57087;SDS011;42965;52.846;6.614;2022-10-23T04:06:42;39.67;;;26.27;;
57087;SDS011;42965;52.846;6.614;2022-10-23T04:09:08;40.35;;;26.20;;
57087;SDS011;42965;52.846;6.614;2022-10-23T04:11:34;38.55;;;25.50;;
57087;SDS011;42965;52.846;6.614;2022-10-23T04:14:02;43.15;;;26.08;;
57087;SDS011;42965;52.846;6.614;2022-10-23T04:16:28;42.15;;;26.00;;
57087;SDS011;42965;52.846;6.614;2022-10-23T04:18:54;30.38;;;22.88;;
57087;SDS011;42965;52.846;6.614;2022-10-23T04:21:21;36.88;;;25.02;;
57087;SDS011;42965;52.846;6.614;2022-10-23T04:23:47;36.78;;;24.90;;
57087;SDS011;42965;52.846;6.614;2022-10-23T04:26:16;35.92;;;23.63;;
57087;SDS011;42965;52.846;6.614;2022-10-23T04:28:43;33.75;;;23.45;;
57087;SDS011;42965;52.846;6.614;2022-10-23T04:31:09;38.65;;;23.92;;
57087;SDS011;42965;52.846;6.614;2022-10-23T04:33:39;28.85;;;21.45;;
57087;SDS011;42965;52.846;6.614;2022-10-23T04:36:06;34.80;;;23.05;;
57087;SDS011;42965;52.846;6.614;2022-10-23T04:38:32;34.72;;;24.02;;
57087;SDS011;42965;52.846;6.614;2022-10-23T04:41:00;31.75;;;23.02;;
57087;SDS011;42965;52.846;6.614;2022-10-23T04:43:27;32.33;;;22.98;;
57087;SDS011;42965;52.846;6.614;2022-10-23T04:45:55;33.80;;;22.88;;
57087;SDS011;42965;52.846;6.614;2022-10-23T04:48:21;36.10;;;23.30;;
57087;SDS011;42965;52.846;6.614;2022-10-23T04:51:06;31.20;;;22.55;;
57087;SDS011;42965;52.846;6.614;2022-10-23T04:54:05;27.00;;;20.88;;
57087;SDS011;42965;52.846;6.614;2022-10-23T04:57:00;24.58;;;18.67;;
57087;SDS011;42965;52.846;6.614;2022-10-23T04:59:35;24.25;;;19.33;;
57087;SDS011;42965;52.846;6.614;2022-10-23T05:02:02;25.60;;;18.95;;
57087;SDS011;42965;52.846;6.614;2022-10-23T05:04:29;28.77;;;21.52;;
57087;SDS011;42965;52.846;6.614;2022-10-23T05:07:15;30.50;;;23.30;;
57087;SDS011;42965;52.846;6.614;2022-10-23T05:09:57;27.83;;;21.95;;
57087;SDS011;42965;52.846;6.614;2022-10-23T05:12:28;36.58;;;24.30;;
57087;SDS011;42965;52.846;6.614;2022-10-23T05:14:55;33.22;;;22.52;;
57087;SDS011;42965;52.846;6.614;2022-10-23T05:17:28;34.20;;;22.42;;
57087;SDS011;42965;52.846;6.614;2022-10-23T05:20:01;39.45;;;23.65;;
57087;SDS011;42965;52.846;6.614;2022-10-23T05:22:32;39.58;;;24.70;;
57087;SDS011;42965;52.846;6.614;2022-10-23T05:25:06;40.20;;;24.50;;
57087;SDS011;42965;52.846;6.614;2022-10-23T05:27:33;33.90;;;24.85;;
57087;SDS011;42965;52.846;6.614;2022-10-23T05:30:01;37.05;;;24.23;;
57087;SDS011;42965;52.846;6.614;2022-10-23T05:32:32;38.55;;;26.13;;
57087;SDS011;42965;52.846;6.614;2022-10-23T05:34:59;34.03;;;24.60;;
57087;SDS011;42965;52.846;6.614;2022-10-23T05:37:29;39.75;;;25.25;;
57087;SDS011;42965;52.846;6.614;2022-10-23T05:40:07;33.83;;;23.33;;
57087;SDS011;42965;52.846;6.614;2022-10-23T05:42:36;35.97;;;23.45;;
57087;SDS011;42965;52.846;6.614;2022-10-23T05:45:05;43.72;;;25.20;;
57087;SDS011;42965;52.846;6.614;2022-10-23T05:47:44;34.50;;;24.55;;
57087;SDS011;42965;52.846;6.614;2022-10-23T05:53:10;34.58;;;22.60;;
57087;SDS011;42965;52.846;6.614;2022-10-23T05:55:55;28.85;;;21.38;;
57087;SDS011;42965;52.846;6.614;2022-10-23T05:58:45;35.03;;;22.65;;
57087;SDS011;42965;52.846;6.614;2022-10-23T06:01:23;28.55;;;20.52;;
57087;SDS011;42965;52.846;6.614;2022-10-23T06:04:04;34.67;;;22.75;;
57087;SDS011;42965;52.846;6.614;2022-10-23T06:06:52;36.83;;;24.27;;
57087;SDS011;42965;52.846;6.614;2022-10-23T06:09:20;33.65;;;23.08;;
57087;SDS011;42965;52.846;6.614;2022-10-23T06:11:48;35.55;;;23.27;;
57087;SDS011;42965;52.846;6.614;2022-10-23T06:14:19;39.38;;;24.55;;
57087;SDS011;42965;52.846;6.614;2022-10-23T06:16:47;39.25;;;22.83;;
57087;SDS011;42965;52.846;6.614;2022-10-23T06:19:14;34.00;;;21.70;;
57087;SDS011;42965;52.846;6.614;2022-10-23T06:21:41;33.58;;;22.95;;
57087;SDS011;42965;52.846;6.614;2022-10-23T06:24:10;32.00;;;21.23;;
57087;SDS011;42965;52.846;6.614;2022-10-23T06:26:43;31.00;;;21.02;;
57087;SDS011;42965;52.846;6.614;2022-10-23T06:29:16;34.05;;;21.98;;
57087;SDS011;42965;52.846;6.614;2022-10-23T06:31:43;34.72;;;21.35;;
57087;SDS011;42965;52.846;6.614;2022-10-23T06:34:11;31.25;;;21.13;;
57087;SDS011;42965;52.846;6.614;2022-10-23T06:36:37;32.75;;;22.20;;
57087;SDS011;42965;52.846;6.614;2022-10-23T06:39:22;29.02;;;20.75;;
57087;SDS011;42965;52.846;6.614;2022-10-23T06:42:02;35.45;;;22.85;;
57087;SDS011;42965;52.846;6.614;2022-10-23T06:44:47;31.58;;;21.45;;
57087;SDS011;42965;52.846;6.614;2022-10-23T06:47:22;32.22;;;21.55;;
57087;SDS011;42965;52.846;6.614;2022-10-23T06:50:07;28.77;;;20.05;;
57087;SDS011;42965;52.846;6.614;2022-10-23T06:52:33;32.85;;;20.40;;
57087;SDS011;42965;52.846;6.614;2022-10-23T06:54:59;31.05;;;20.05;;
57087;SDS011;42965;52.846;6.614;2022-10-23T06:57:32;29.77;;;20.23;;
57087;SDS011;42965;52.846;6.614;2022-10-23T06:59:58;29.17;;;18.13;;
57087;SDS011;42965;52.846;6.614;2022-10-23T07:02:25;35.13;;;20.48;;
57087;SDS011;42965;52.846;6.614;2022-10-23T07:04:52;28.10;;;18.98;;
57087;SDS011;42965;52.846;6.614;2022-10-23T07:07:20;28.42;;;18.40;;
57087;SDS011;42965;52.846;6.614;2022-10-23T07:09:48;26.30;;;18.33;;
57087;SDS011;42965;52.846;6.614;2022-10-23T07:12:23;28.40;;;19.40;;
57087;SDS011;42965;52.846;6.614;2022-10-23T07:15:03;24.67;;;18.38;;
57087;SDS011;42965;52.846;6.614;2022-10-23T07:17:29;23.90;;;17.13;;
57087;SDS011;42965;52.846;6.614;2022-10-23T07:19:57;30.85;;;17.80;;
57087;SDS011;42965;52.846;6.614;2022-10-23T07:22:23;26.73;;;16.65;;
57087;SDS011;42965;52.846;6.614;2022-10-23T07:25:22;24.08;;;17.42;;
57087;SDS011;42965;52.846;6.614;2022-10-23T07:27:51;23.88;;;16.88;;
57087;SDS011;42965;52.846;6.614;2022-10-23T07:30:22;26.30;;;16.80;;
57087;SDS011;42965;52.846;6.614;2022-10-23T07:32:52;22.98;;;15.48;;
57087;SDS011;42965;52.846;6.614;2022-10-23T07:35:33;19.40;;;16.27;;
57087;SDS011;42965;52.846;6.614;2022-10-23T07:38:06;23.35;;;17.05;;
57087;SDS011;42965;52.846;6.614;2022-10-23T07:40:36;22.38;;;15.13;;
57087;SDS011;42965;52.846;6.614;2022-10-23T07:43:03;20.80;;;14.60;;
57087;SDS011;42965;52.846;6.614;2022-10-23T07:45:30;20.92;;;14.70;;
57087;SDS011;42965;52.846;6.614;2022-10-23T07:47:58;24.20;;;15.82;;
57087;SDS011;42965;52.846;6.614;2022-10-23T07:50:31;23.00;;;16.17;;
57087;SDS011;42965;52.846;6.614;2022-10-23T07:52:57;20.73;;;16.17;;
57087;SDS011;42965;52.846;6.614;2022-10-23T07:55:33;19.40;;;13.90;;
57087;SDS011;42965;52.846;6.614;2022-10-23T07:58:08;21.17;;;13.52;;
57087;SDS011;42965;52.846;6.614;2022-10-23T08:00:42;24.65;;;14.85;;
57087;SDS011;42965;52.846;6.614;2022-10-23T08:03:19;17.20;;;13.80;;
57087;SDS011;42965;52.846;6.614;2022-10-23T08:05:47;19.10;;;14.02;;
57087;SDS011;42965;52.846;6.614;2022-10-23T08:08:13;22.27;;;13.30;;
57087;SDS011;42965;52.846;6.614;2022-10-23T08:10:47;16.98;;;13.32;;
57087;SDS011;42965;52.846;6.614;2022-10-23T08:13:22;18.70;;;12.90;;
57087;SDS011;42965;52.846;6.614;2022-10-23T08:15:54;19.90;;;12.30;;
57087;SDS011;42965;52.846;6.614;2022-10-23T08:18:41;16.23;;;12.68;;
57087;SDS011;42965;52.846;6.614;2022-10-23T08:21:12;23.20;;;13.13;;
57087;SDS011;42965;52.846;6.614;2022-10-23T08:23:39;18.33;;;11.90;;
57087;SDS011;42965;52.846;6.614;2022-10-23T08:26:06;20.60;;;12.57;;
57087;SDS011;42965;52.846;6.614;2022-10-23T08:28:34;19.48;;;12.88;;
57087;SDS011;42965;52.846;6.614;2022-10-23T08:31:06;13.90;;;11.63;;
57087;SDS011;42965;52.846;6.614;2022-10-23T08:33:35;15.68;;;11.32;;
57087;SDS011;42965;52.846;6.614;2022-10-23T08:36:01;14.85;;;11.32;;
57087;SDS011;42965;52.846;6.614;2022-10-23T08:38:32;16.83;;;11.18;;
57087;SDS011;42965;52.846;6.614;2022-10-23T08:41:00;13.70;;;10.80;;
57087;SDS011;42965;52.846;6.614;2022-10-23T08:43:55;13.23;;;10.45;;
57087;SDS011;42965;52.846;6.614;2022-10-23T08:46:52;16.35;;;10.15;;
57087;SDS011;42965;52.846;6.614;2022-10-23T08:52:24;13.15;;;9.00;;
57087;SDS011;42965;52.846;6.614;2022-10-23T08:57:32;12.40;;;9.00;;
57087;SDS011;42965;52.846;6.614;2022-10-23T09:00:07;15.13;;;9.45;;
57087;SDS011;42965;52.846;6.614;2022-10-23T09:02:39;10.75;;;8.15;;
57087;SDS011;42965;52.846;6.614;2022-10-23T09:05:26;11.20;;;8.18;;
57087;SDS011;42965;52.846;6.614;2022-10-23T09:16:31;14.15;;;7.53;;
57087;SDS011;42965;52.846;6.614;2022-10-23T09:19:13;9.65;;;6.82;;
57087;SDS011;42965;52.846;6.614;2022-10-23T09:21:46;9.70;;;7.25;;
57087;SDS011;42965;52.846;6.614;2022-10-23T09:24:17;9.80;;;6.93;;
57087;SDS011;42965;52.846;6.614;2022-10-23T09:26:46;10.68;;;7.68;;
57087;SDS011;42965;52.846;6.614;2022-10-23T09:29:24;8.35;;;6.72;;
57087;SDS011;42965;52.846;6.614;2022-10-23T09:31:57;9.50;;;6.60;;
57087;SDS011;42965;52.846;6.614;2022-10-23T09:34:25;9.30;;;6.88;;
57087;SDS011;42965;52.846;6.614;2022-10-23T09:36:57;10.45;;;6.10;;
57087;SDS011;42965;52.846;6.614;2022-10-23T09:39:34;12.65;;;6.07;;
57087;SDS011;42965;52.846;6.614;2022-10-23T09:42:13;8.88;;;5.80;;
57087;SDS011;42965;52.846;6.614;2022-10-23T09:44:51;10.43;;;5.78;;
57087;SDS011;42965;52.846;6.614;2022-10-23T09:47:20;10.27;;;5.68;;
57087;SDS011;42965;52.846;6.614;2022-10-23T09:49:49;11.63;;;5.60;;
57087;SDS011;42965;52.846;6.614;2022-10-23T09:55:01;11.98;;;6.28;;
57087;SDS011;42965;52.846;6.614;2022-10-23T09:57:40;8.02;;;5.22;;
57087;SDS011;42965;52.846;6.614;2022-10-23T10:06:00;10.27;;;5.65;;
57087;SDS011;42965;52.846;6.614;2022-10-23T10:08:39;8.65;;;5.38;;
57087;SDS011;42965;52.846;6.614;2022-10-23T10:13:58;7.07;;;5.68;;
57087;SDS011;42965;52.846;6.614;2022-10-23T10:16:32;8.45;;;5.50;;
57087;SDS011;42965;52.846;6.614;2022-10-23T10:19:14;7.80;;;5.03;;
57087;SDS011;42965;52.846;6.614;2022-10-23T10:24:31;11.85;;;9.85;;
57087;SDS011;42965;52.846;6.614;2022-10-23T10:27:13;6.55;;;4.32;;
57087;SDS011;42965;52.846;6.614;2022-10-23T10:29:56;9.15;;;5.43;;
57087;SDS011;42965;52.846;6.614;2022-10-23T10:32:40;9.07;;;4.53;;
57087;SDS011;42965;52.846;6.614;2022-10-23T10:41:21;11.80;;;4.40;;
57087;SDS011;42965;52.846;6.614;2022-10-23T10:43:56;9.30;;;4.15;;
57087;SDS011;42965;52.846;6.614;2022-10-23T10:46:52;7.85;;;5.28;;
57087;SDS011;42965;52.846;6.614;2022-10-23T10:53:23;10.77;;;4.97;;
57087;SDS011;42965;52.846;6.614;2022-10-23T10:55:32;7.05;;;3.97;;
57087;SDS011;42965;52.846;6.614;2022-10-23T11:01:09;7.93;;;4.50;;
57087;SDS011;42965;52.846;6.614;2022-10-23T11:06:36;9.13;;;4.80;;
57087;SDS011;42965;52.846;6.614;2022-10-23T11:09:10;7.30;;;5.75;;
57087;SDS011;42965;52.846;6.614;2022-10-23T11:11:41;11.73;;;8.95;;
57087;SDS011;42965;52.846;6.614;2022-10-23T11:14:18;7.20;;;5.00;;
57087;SDS011;42965;52.846;6.614;2022-10-23T11:16:48;8.07;;;5.10;;
57087;SDS011;42965;52.846;6.614;2022-10-23T11:19:39;9.30;;;4.82;;
57087;SDS011;42965;52.846;6.614;2022-10-23T11:22:10;11.63;;;9.10;;
57087;SDS011;42965;52.846;6.614;2022-10-23T11:27:36;8.02;;;4.95;;
57087;SDS011;42965;52.846;6.614;2022-10-23T11:36:17;8.48;;;4.65;;
57087;SDS011;42965;52.846;6.614;2022-10-23T11:41:50;6.40;;;4.38;;
57087;SDS011;42965;52.846;6.614;2022-10-23T11:44:27;6.47;;;3.97;;
57087;SDS011;42965;52.846;6.614;2022-10-23T11:47:04;7.55;;;4.45;;
57087;SDS011;42965;52.846;6.614;2022-10-23T11:49:50;8.55;;;5.68;;
57087;SDS011;42965;52.846;6.614;2022-10-23T11:52:28;6.53;;;4.93;;
57087;SDS011;42965;52.846;6.614;2022-10-23T11:55:02;7.53;;;4.35;;
57087;SDS011;42965;52.846;6.614;2022-10-23T11:57:40;9.77;;;4.70;;
57087;SDS011;42965;52.846;6.614;2022-10-23T12:00:19;7.18;;;3.55;;
57087;SDS011;42965;52.846;6.614;2022-10-23T12:02:51;6.97;;;4.10;;
57087;SDS011;42965;52.846;6.614;2022-10-23T12:07:55;7.88;;;4.10;;
57087;SDS011;42965;52.846;6.614;2022-10-23T12:10:28;11.35;;;6.22;;
57087;SDS011;42965;52.846;6.614;2022-10-23T12:13:00;10.10;;;4.47;;
57087;SDS011;42965;52.846;6.614;2022-10-23T12:15:31;5.70;;;3.75;;
57087;SDS011;42965;52.846;6.614;2022-10-23T12:18:09;11.30;;;6.68;;
57087;SDS011;42965;52.846;6.614;2022-10-23T12:23:25;7.22;;;3.70;;
57087;SDS011;42965;52.846;6.614;2022-10-23T12:39:24;6.68;;;3.83;;
57087;SDS011;42965;52.846;6.614;2022-10-23T12:41:55;8.00;;;3.17;;
57087;SDS011;42965;52.846;6.614;2022-10-23T12:44:22;7.85;;;3.67;;
57087;SDS011;42965;52.846;6.614;2022-10-23T12:46:50;5.63;;;3.40;;
57087;SDS011;42965;52.846;6.614;2022-10-23T12:49:23;4.75;;;3.30;;
57087;SDS011;42965;52.846;6.614;2022-10-23T12:51:59;7.38;;;3.88;;
57087;SDS011;42965;52.846;6.614;2022-10-23T12:54:32;6.47;;;3.85;;
57087;SDS011;42965;52.846;6.614;2022-10-23T12:57:20;8.48;;;4.03;;
57087;SDS011;42965;52.846;6.614;2022-10-23T12:59:48;5.20;;;2.78;;
57087;SDS011;42965;52.846;6.614;2022-10-23T13:02:25;7.18;;;4.18;;
57087;SDS011;42965;52.846;6.614;2022-10-23T13:04:53;6.00;;;3.38;;
57087;SDS011;42965;52.846;6.614;2022-10-23T13:07:25;5.47;;;3.33;;
57087;SDS011;42965;52.846;6.614;2022-10-23T13:09:57;5.45;;;3.80;;
57087;SDS011;42965;52.846;6.614;2022-10-23T13:12:31;9.13;;;4.88;;
57087;SDS011;42965;52.846;6.614;2022-10-23T13:17:36;10.15;;;5.05;;
57087;SDS011;42965;52.846;6.614;2022-10-23T13:22:46;7.72;;;3.72;;
57087;SDS011;42965;52.846;6.614;2022-10-23T13:25:34;7.80;;;3.50;;
57087;SDS011;42965;52.846;6.614;2022-10-23T13:30:55;6.15;;;3.53;;
57087;SDS011;42965;52.846;6.614;2022-10-23T13:33:25;5.93;;;3.10;;
57087;SDS011;42965;52.846;6.614;2022-10-23T13:36:01;8.20;;;4.13;;
57087;SDS011;42965;52.846;6.614;2022-10-23T13:38:57;6.50;;;3.50;;
57087;SDS011;42965;52.846;6.614;2022-10-23T13:41:27;5.30;;;3.33;;
57087;SDS011;42965;52.846;6.614;2022-10-23T13:43:59;9.50;;;3.92;;
57087;SDS011;42965;52.846;6.614;2022-10-23T13:46:25;6.93;;;4.18;;
57087;SDS011;42965;52.846;6.614;2022-10-23T13:48:52;8.45;;;5.50;;
57087;SDS011;42965;52.846;6.614;2022-10-23T13:51:19;5.78;;;4.07;;
57087;SDS011;42965;52.846;6.614;2022-10-23T13:53:52;7.32;;;3.53;;
57087;SDS011;42965;52.846;6.614;2022-10-23T13:56:19;7.80;;;3.40;;
57087;SDS011;42965;52.846;6.614;2022-10-23T13:58:47;7.55;;;4.13;;
57087;SDS011;42965;52.846;6.614;2022-10-23T14:01:15;10.40;;;5.32;;
57087;SDS011;42965;52.846;6.614;2022-10-23T14:03:48;7.97;;;3.55;;
57087;SDS011;42965;52.846;6.614;2022-10-23T14:06:15;5.43;;;3.17;;
57087;SDS011;42965;52.846;6.614;2022-10-23T14:08:42;7.50;;;4.00;;
57087;SDS011;42965;52.846;6.614;2022-10-23T14:11:11;11.43;;;5.85;;
57087;SDS011;42965;52.846;6.614;2022-10-23T14:13:40;5.95;;;3.55;;
57087;SDS011;42965;52.846;6.614;2022-10-23T14:16:08;5.97;;;3.53;;
57087;SDS011;42965;52.846;6.614;2022-10-23T14:18:37;6.90;;;3.40;;
57087;SDS011;42965;52.846;6.614;2022-10-23T14:21:05;20.42;;;14.02;;
57087;SDS011;42965;52.846;6.614;2022-10-23T14:23:33;9.00;;;5.28;;
57087;SDS011;42965;52.846;6.614;2022-10-23T14:26:03;7.80;;;3.83;;
57087;SDS011;42965;52.846;6.614;2022-10-23T14:28:30;7.50;;;3.00;;
57087;SDS011;42965;52.846;6.614;2022-10-23T14:30:57;5.10;;;3.03;;
57087;SDS011;42965;52.846;6.614;2022-10-23T14:33:28;6.85;;;3.53;;
57087;SDS011;42965;52.846;6.614;2022-10-23T14:35:54;5.65;;;2.95;;
57087;SDS011;42965;52.846;6.614;2022-10-23T14:38:20;9.07;;;4.28;;
57087;SDS011;42965;52.846;6.614;2022-10-23T14:40:47;5.68;;;3.03;;
57087;SDS011;42965;52.846;6.614;2022-10-23T14:43:13;7.82;;;3.70;;
57087;SDS011;42965;52.846;6.614;2022-10-23T14:45:40;6.47;;;3.30;;
57087;SDS011;42965;52.846;6.614;2022-10-23T14:48:06;5.72;;;3.33;;
57087;SDS011;42965;52.846;6.614;2022-10-23T14:50:34;5.85;;;3.28;;
57087;SDS011;42965;52.846;6.614;2022-10-23T14:53:02;6.88;;;3.15;;
57087;SDS011;42965;52.846;6.614;2022-10-23T14:55:29;14.60;;;10.77;;
57087;SDS011;42965;52.846;6.614;2022-10-23T14:57:55;6.00;;;3.10;;
57087;SDS011;42965;52.846;6.614;2022-10-23T15:00:22;5.57;;;2.78;;
57087;SDS011;42965;52.846;6.614;2022-10-23T15:02:49;4.90;;;3.22;;
57087;SDS011;42965;52.846;6.614;2022-10-23T15:05:16;4.78;;;2.90;;
57087;SDS011;42965;52.846;6.614;2022-10-23T15:07:42;7.43;;;3.55;;
57087;SDS011;42965;52.846;6.614;2022-10-23T15:10:09;8.57;;;3.20;;
57087;SDS011;42965;52.846;6.614;2022-10-23T15:12:35;6.38;;;3.38;;
57087;SDS011;42965;52.846;6.614;2022-10-23T15:15:04;7.35;;;4.15;;
57087;SDS011;42965;52.846;6.614;2022-10-23T15:17:31;8.43;;;4.38;;
57087;SDS011;42965;52.846;6.614;2022-10-23T15:19:59;7.82;;;2.83;;
57087;SDS011;42965;52.846;6.614;2022-10-23T15:22:26;5.47;;;2.90;;
57087;SDS011;42965;52.846;6.614;2022-10-23T15:24:52;11.80;;;6.85;;
57087;SDS011;42965;52.846;6.614;2022-10-23T15:27:19;6.93;;;4.18;;
57087;SDS011;42965;52.846;6.614;2022-10-23T15:29:46;5.50;;;3.38;;
57087;SDS011;42965;52.846;6.614;2022-10-23T15:32:12;7.10;;;3.70;;
57087;SDS011;42965;52.846;6.614;2022-10-23T15:34:40;7.22;;;2.67;;
57087;SDS011;42965;52.846;6.614;2022-10-23T15:37:08;7.03;;;3.00;;
57087;SDS011;42965;52.846;6.614;2022-10-23T15:39:35;15.63;;;11.45;;
57087;SDS011;42965;52.846;6.614;2022-10-23T15:42:03;8.20;;;3.22;;
57087;SDS011;42965;52.846;6.614;2022-10-23T15:44:31;6.90;;;3.92;;
57087;SDS011;42965;52.846;6.614;2022-10-23T15:46:59;6.45;;;3.75;;
57087;SDS011;42965;52.846;6.614;2022-10-23T15:49:26;5.70;;;2.92;;
57087;SDS011;42965;52.846;6.614;2022-10-23T15:51:57;6.38;;;3.13;;
57087;SDS011;42965;52.846;6.614;2022-10-23T15:54:23;5.85;;;3.30;;
57087;SDS011;42965;52.846;6.614;2022-10-23T15:56:50;7.63;;;3.55;;
57087;SDS011;42965;52.846;6.614;2022-10-23T15:59:19;7.97;;;3.10;;
57087;SDS011;42965;52.846;6.614;2022-10-23T16:01:47;10.20;;;6.50;;
57087;SDS011;42965;52.846;6.614;2022-10-23T16:04:13;6.68;;;3.22;;
57087;SDS011;42965;52.846;6.614;2022-10-23T16:06:41;6.18;;;3.15;;
57087;SDS011;42965;52.846;6.614;2022-10-23T16:09:09;5.10;;;3.05;;
57087;SDS011;42965;52.846;6.614;2022-10-23T16:11:37;6.85;;;3.88;;
57087;SDS011;42965;52.846;6.614;2022-10-23T16:14:04;5.75;;;2.90;;
57087;SDS011;42965;52.846;6.614;2022-10-23T16:16:31;6.97;;;3.10;;
57087;SDS011;42965;52.846;6.614;2022-10-23T16:19:02;13.20;;;8.05;;
57087;SDS011;42965;52.846;6.614;2022-10-23T16:21:30;4.20;;;2.63;;
57087;SDS011;42965;52.846;6.614;2022-10-23T16:23:59;6.10;;;3.28;;
57087;SDS011;42965;52.846;6.614;2022-10-23T16:26:28;4.38;;;2.75;;
57087;SDS011;42965;52.846;6.614;2022-10-23T16:28:56;7.22;;;2.60;;
57087;SDS011;42965;52.846;6.614;2022-10-23T16:31:24;4.93;;;2.78;;
57087;SDS011;42965;52.846;6.614;2022-10-23T16:33:51;7.63;;;3.85;;
57087;SDS011;42965;52.846;6.614;2022-10-23T16:36:18;6.20;;;3.10;;
57087;SDS011;42965;52.846;6.614;2022-10-23T16:39:23;5.15;;;3.10;;
57087;SDS011;42965;52.846;6.614;2022-10-23T16:42:19;5.68;;;2.95;;
57087;SDS011;42965;52.846;6.614;2022-10-23T16:45:09;10.10;;;6.22;;
57087;SDS011;42965;52.846;6.614;2022-10-23T16:47:36;6.28;;;3.10;;
57087;SDS011;42965;52.846;6.614;2022-10-23T16:50:02;7.13;;;3.30;;